sensor_id;sensor_type;location;lat;lon;timestamp;temperature;humidity
5027;DHT22;2532;52.480;13.354;2023-02-13T00:00:42;10.00;99.90
5027;DHT22;2532;52.480;13.354;2023-02-13T00:03:09;10.00;99.90
5027;DHT22;2532;52.480;13.354;2023-02-13T00:05:36;9.90;99.90
5027;DHT22;2532;52.480;13.354;2023-02-13T00:08:05;10.00;99.90
5027;DHT22;2532;52.480;13.354;2023-02-13T00:10:32;10.00;99.90
5027;DHT22;2532;52.480;13.354;2023-02-13T00:12:59;9.90;99.90
5027;DHT22;2532;52.480;13.354;2023-02-13T00:15:29;10.00;99.90
5027;DHT22;2532;52.480;13.354;2023-02-13T00:17:55;9.90;99.90
5027;DHT22;2532;52.480;13.354;2023-02-13T00:20:23;9.90;99.90
5027;DHT22;2532;52.480;13.354;2023-02-13T00:22:50;9.80;99.90
5027;DHT22;2532;52.480;13.354;2023-02-13T00:25:19;9.90;99.90
5027;DHT22;2532;52.480;13.354;2023-02-13T00:27:46;9.90;99.90
5027;DHT22;2532;52.480;13.354;2023-02-13T00:30:14;9.90;99.90
5027;DHT22;2532;52.480;13.354;2023-02-13T00:32:41;9.90;99.90
5027;DHT22;2532;52.480;13.354;2023-02-13T00:35:08;9.90;99.90
5027;DHT22;2532;52.480;13.354;2023-02-13T00:37:35;9.80;99.90
5027;DHT22;2532;52.480;13.354;2023-02-13T00:40:02;9.90;99.90
5027;DHT22;2532;52.480;13.354;2023-02-13T00:42:30;9.90;99.90
5027;DHT22;2532;52.480;13.354;2023-02-13T00:44:57;9.90;99.70
5027;DHT22;2532;52.480;13.354;2023-02-13T00:47:24;9.90;99.50
5027;DHT22;2532;52.480;13.354;2023-02-13T00:49:51;9.80;99.20
5027;DHT22;2532;52.480;13.354;2023-02-13T00:52:18;9.80;99.20
5027;DHT22;2532;52.480;13.354;2023-02-13T00:54:45;9.70;98.90
5027;DHT22;2532;52.480;13.354;2023-02-13T00:57:12;9.60;98.50
5027;DHT22;2532;52.480;13.354;2023-02-13T00:59:40;9.60;98.50
5027;DHT22;2532;52.480;13.354;2023-02-13T01:02:07;9.60;98.60
5027;DHT22;2532;52.480;13.354;2023-02-13T01:04:34;9.60;98.40
5027;DHT22;2532;52.480;13.354;2023-02-13T01:07:01;9.60;98.30
5027;DHT22;2532;52.480;13.354;2023-02-13T01:09:28;9.60;98.30
5027;DHT22;2532;52.480;13.354;2023-02-13T01:11:55;9.60;98.00
5027;DHT22;2532;52.480;13.354;2023-02-13T01:14:22;9.60;97.90
5027;DHT22;2532;52.480;13.354;2023-02-13T01:16:50;9.60;97.70
5027;DHT22;2532;52.480;13.354;2023-02-13T01:19:17;9.70;97.70
5027;DHT22;2532;52.480;13.354;2023-02-13T01:21:44;9.70;97.50
5027;DHT22;2532;52.480;13.354;2023-02-13T01:24:11;9.70;97.40
5027;DHT22;2532;52.480;13.354;2023-02-13T01:26:38;9.70;97.30
5027;DHT22;2532;52.480;13.354;2023-02-13T01:29:05;9.80;97.30
5027;DHT22;2532;52.480;13.354;2023-02-13T01:31:33;9.80;97.30
5027;DHT22;2532;52.480;13.354;2023-02-13T01:34:01;9.80;97.10
5027;DHT22;2532;52.480;13.354;2023-02-13T01:36:28;9.80;97.10
5027;DHT22;2532;52.480;13.354;2023-02-13T01:38:57;9.80;97.10
5027;DHT22;2532;52.480;13.354;2023-02-13T01:41:26;9.80;97.10
5027;DHT22;2532;52.480;13.354;2023-02-13T01:43:55;9.90;97.10
5027;DHT22;2532;52.480;13.354;2023-02-13T01:46:25;9.80;97.10
5027;DHT22;2532;52.480;13.354;2023-02-13T01:48:55;9.90;97.20
5027;DHT22;2532;52.480;13.354;2023-02-13T01:51:28;9.80;97.20
5027;DHT22;2532;52.480;13.354;2023-02-13T01:54:00;9.80;97.30
5027;DHT22;2532;52.480;13.354;2023-02-13T01:56:31;9.80;97.40
5027;DHT22;2532;52.480;13.354;2023-02-13T01:59:01;9.80;97.50
5027;DHT22;2532;52.480;13.354;2023-02-13T02:01:30;9.80;97.60
5027;DHT22;2532;52.480;13.354;2023-02-13T02:04:02;9.70;97.70
5027;DHT22;2532;52.480;13.354;2023-02-13T02:06:34;9.70;97.70
5027;DHT22;2532;52.480;13.354;2023-02-13T02:09:05;9.70;97.80
5027;DHT22;2532;52.480;13.354;2023-02-13T02:11:52;9.70;97.90
5027;DHT22;2532;52.480;13.354;2023-02-13T02:14:21;9.70;97.90
5027;DHT22;2532;52.480;13.354;2023-02-13T02:16:48;9.70;97.90
5027;DHT22;2532;52.480;13.354;2023-02-13T02:19:21;9.70;98.00
5027;DHT22;2532;52.480;13.354;2023-02-13T02:22:08;9.70;98.10
5027;DHT22;2532;52.480;13.354;2023-02-13T02:31:26;9.60;98.40
5027;DHT22;2532;52.480;13.354;2023-02-13T02:34:08;9.50;98.40
5027;DHT22;2532;52.480;13.354;2023-02-13T02:36:49;9.50;98.50
5027;DHT22;2532;52.480;13.354;2023-02-13T02:39:26;9.50;98.60
5027;DHT22;2532;52.480;13.354;2023-02-13T02:42:03;9.50;98.60
5027;DHT22;2532;52.480;13.354;2023-02-13T02:44:38;9.50;98.60
5027;DHT22;2532;52.480;13.354;2023-02-13T02:47:16;9.50;98.60
5027;DHT22;2532;52.480;13.354;2023-02-13T02:50:13;9.50;98.70
5027;DHT22;2532;52.480;13.354;2023-02-13T02:52:50;9.50;98.70
5027;DHT22;2532;52.480;13.354;2023-02-13T02:55:30;9.50;98.70
5027;DHT22;2532;52.480;13.354;2023-02-13T02:58:06;9.40;98.80
5027;DHT22;2532;52.480;13.354;2023-02-13T03:00:52;9.40;98.90
5027;DHT22;2532;52.480;13.354;2023-02-13T03:03:39;9.40;98.90
5027;DHT22;2532;52.480;13.354;2023-02-13T03:06:29;9.40;99.00
5027;DHT22;2532;52.480;13.354;2023-02-13T03:09:00;9.40;99.00
5027;DHT22;2532;52.480;13.354;2023-02-13T03:11:49;9.40;99.00
5027;DHT22;2532;52.480;13.354;2023-02-13T03:14:34;9.40;99.10
5027;DHT22;2532;52.480;13.354;2023-02-13T03:17:02;9.40;99.10
5027;DHT22;2532;52.480;13.354;2023-02-13T03:23:12;9.40;99.20
5027;DHT22;2532;52.480;13.354;2023-02-13T03:26:01;9.40;99.20
5027;DHT22;2532;52.480;13.354;2023-02-13T03:28:37;9.40;99.20
5027;DHT22;2532;52.480;13.354;2023-02-13T03:31:30;9.40;99.20
5027;DHT22;2532;52.480;13.354;2023-02-13T03:34:02;9.30;99.20
5027;DHT22;2532;52.480;13.354;2023-02-13T03:36:42;9.30;99.20
5027;DHT22;2532;52.480;13.354;2023-02-13T03:39:39;9.40;99.30
5027;DHT22;2532;52.480;13.354;2023-02-13T03:42:14;9.30;99.20
5027;DHT22;2532;52.480;13.354;2023-02-13T03:44:48;9.30;99.20
5027;DHT22;2532;52.480;13.354;2023-02-13T03:47:37;9.30;99.20
5027;DHT22;2532;52.480;13.354;2023-02-13T03:50:07;9.30;99.20
5027;DHT22;2532;52.480;13.354;2023-02-13T03:52:38;9.40;99.20
5027;DHT22;2532;52.480;13.354;2023-02-13T03:55:10;9.40;99.10
5027;DHT22;2532;52.480;13.354;2023-02-13T03:57:59;9.30;98.70
5027;DHT22;2532;52.480;13.354;2023-02-13T04:00:49;9.30;98.70
5027;DHT22;2532;52.480;13.354;2023-02-13T04:03:20;9.30;98.80
5027;DHT22;2532;52.480;13.354;2023-02-13T04:05:50;9.30;98.90
5027;DHT22;2532;52.480;13.354;2023-02-13T04:08:19;9.30;98.90
5027;DHT22;2532;52.480;13.354;2023-02-13T04:10:50;9.30;98.90
5027;DHT22;2532;52.480;13.354;2023-02-13T04:13:25;9.30;98.90
5027;DHT22;2532;52.480;13.354;2023-02-13T04:15:55;9.30;98.80
5027;DHT22;2532;52.480;13.354;2023-02-13T04:18:26;9.30;98.80
5027;DHT22;2532;52.480;13.354;2023-02-13T04:20:54;9.30;98.80
5027;DHT22;2532;52.480;13.354;2023-02-13T04:23:21;9.30;98.80
5027;DHT22;2532;52.480;13.354;2023-02-13T04:25:51;9.40;98.90
5027;DHT22;2532;52.480;13.354;2023-02-13T04:28:19;9.30;98.80
5027;DHT22;2532;52.480;13.354;2023-02-13T04:30:45;9.30;98.80
5027;DHT22;2532;52.480;13.354;2023-02-13T04:33:13;9.30;98.80
5027;DHT22;2532;52.480;13.354;2023-02-13T04:35:39;9.30;98.80
5027;DHT22;2532;52.480;13.354;2023-02-13T04:38:06;9.30;98.80
5027;DHT22;2532;52.480;13.354;2023-02-13T04:40:33;9.30;98.80
5027;DHT22;2532;52.480;13.354;2023-02-13T04:43:02;9.30;98.90
5027;DHT22;2532;52.480;13.354;2023-02-13T04:45:29;9.30;98.90
5027;DHT22;2532;52.480;13.354;2023-02-13T04:47:57;9.30;98.80
5027;DHT22;2532;52.480;13.354;2023-02-13T04:50:25;9.30;98.60
5027;DHT22;2532;52.480;13.354;2023-02-13T04:52:52;9.30;98.50
5027;DHT22;2532;52.480;13.354;2023-02-13T04:55:20;9.30;98.50
5027;DHT22;2532;52.480;13.354;2023-02-13T04:57:47;9.30;98.30
5027;DHT22;2532;52.480;13.354;2023-02-13T05:00:16;9.30;98.10
5027;DHT22;2532;52.480;13.354;2023-02-13T05:02:43;9.30;98.00
5027;DHT22;2532;52.480;13.354;2023-02-13T05:05:10;9.30;98.00
5027;DHT22;2532;52.480;13.354;2023-02-13T05:07:37;9.30;97.90
5027;DHT22;2532;52.480;13.354;2023-02-13T05:10:04;9.30;97.60
5027;DHT22;2532;52.480;13.354;2023-02-13T05:12:32;9.30;97.50
5027;DHT22;2532;52.480;13.354;2023-02-13T05:14:58;9.30;97.40
5027;DHT22;2532;52.480;13.354;2023-02-13T05:17:27;9.30;97.40
5027;DHT22;2532;52.480;13.354;2023-02-13T05:19:54;9.30;97.40
5027;DHT22;2532;52.480;13.354;2023-02-13T05:22:21;9.30;97.40
5027;DHT22;2532;52.480;13.354;2023-02-13T05:25:06;9.30;97.30
5027;DHT22;2532;52.480;13.354;2023-02-13T05:27:32;9.20;97.30
5027;DHT22;2532;52.480;13.354;2023-02-13T05:29:59;9.30;97.20
5027;DHT22;2532;52.480;13.354;2023-02-13T05:32:27;9.20;97.10
5027;DHT22;2532;52.480;13.354;2023-02-13T05:34:54;9.20;97.00
5027;DHT22;2532;52.480;13.354;2023-02-13T05:37:21;9.20;97.00
5027;DHT22;2532;52.480;13.354;2023-02-13T05:39:48;9.20;97.10
5027;DHT22;2532;52.480;13.354;2023-02-13T05:42:15;9.30;97.10
5027;DHT22;2532;52.480;13.354;2023-02-13T05:44:42;9.30;97.00
5027;DHT22;2532;52.480;13.354;2023-02-13T05:47:10;9.30;96.80
5027;DHT22;2532;52.480;13.354;2023-02-13T05:49:38;9.30;96.70
5027;DHT22;2532;52.480;13.354;2023-02-13T05:52:06;9.30;96.70
5027;DHT22;2532;52.480;13.354;2023-02-13T05:54:33;9.30;96.60
5027;DHT22;2532;52.480;13.354;2023-02-13T05:57:01;9.30;96.60
5027;DHT22;2532;52.480;13.354;2023-02-13T05:59:30;9.30;96.60
5027;DHT22;2532;52.480;13.354;2023-02-13T06:02:06;9.30;96.60
5027;DHT22;2532;52.480;13.354;2023-02-13T06:04:33;9.40;96.40
5027;DHT22;2532;52.480;13.354;2023-02-13T06:07:02;9.30;96.30
5027;DHT22;2532;52.480;13.354;2023-02-13T06:09:33;9.30;96.20
5027;DHT22;2532;52.480;13.354;2023-02-13T06:12:09;9.30;96.10
5027;DHT22;2532;52.480;13.354;2023-02-13T06:14:41;9.40;96.10
5027;DHT22;2532;52.480;13.354;2023-02-13T06:17:08;9.30;96.10
5027;DHT22;2532;52.480;13.354;2023-02-13T06:19:36;9.40;96.00
5027;DHT22;2532;52.480;13.354;2023-02-13T06:22:06;9.40;95.90
5027;DHT22;2532;52.480;13.354;2023-02-13T06:24:33;9.40;96.00
5027;DHT22;2532;52.480;13.354;2023-02-13T06:27:01;9.30;96.00
5027;DHT22;2532;52.480;13.354;2023-02-13T06:29:28;9.40;96.00
5027;DHT22;2532;52.480;13.354;2023-02-13T06:31:57;9.40;96.00
5027;DHT22;2532;52.480;13.354;2023-02-13T06:34:27;9.40;95.90
5027;DHT22;2532;52.480;13.354;2023-02-13T06:36:55;9.40;96.00
5027;DHT22;2532;52.480;13.354;2023-02-13T06:39:30;9.40;95.90
5027;DHT22;2532;52.480;13.354;2023-02-13T06:42:00;9.40;96.10
5027;DHT22;2532;52.480;13.354;2023-02-13T06:44:47;9.40;96.00
5027;DHT22;2532;52.480;13.354;2023-02-13T06:47:50;9.50;96.00
5027;DHT22;2532;52.480;13.354;2023-02-13T06:50:26;9.50;96.10
5027;DHT22;2532;52.480;13.354;2023-02-13T06:53:06;9.50;96.10
5027;DHT22;2532;52.480;13.354;2023-02-13T06:55:39;9.50;96.10
5027;DHT22;2532;52.480;13.354;2023-02-13T06:58:07;9.50;96.10
5027;DHT22;2532;52.480;13.354;2023-02-13T07:00:37;9.50;96.30
5027;DHT22;2532;52.480;13.354;2023-02-13T07:03:16;9.50;96.40
5027;DHT22;2532;52.480;13.354;2023-02-13T07:05:46;9.50;96.40
5027;DHT22;2532;52.480;13.354;2023-02-13T07:08:17;9.50;96.40
5027;DHT22;2532;52.480;13.354;2023-02-13T07:10:47;9.50;96.50
5027;DHT22;2532;52.480;13.354;2023-02-13T07:13:14;9.50;96.50
5027;DHT22;2532;52.480;13.354;2023-02-13T07:15:42;9.50;96.50
5027;DHT22;2532;52.480;13.354;2023-02-13T07:20:53;9.50;96.60
5027;DHT22;2532;52.480;13.354;2023-02-13T07:23:25;9.50;96.60
5027;DHT22;2532;52.480;13.354;2023-02-13T07:25:57;9.50;96.50
5027;DHT22;2532;52.480;13.354;2023-02-13T07:28:25;9.50;96.50
5027;DHT22;2532;52.480;13.354;2023-02-13T07:30:53;9.50;96.60
5027;DHT22;2532;52.480;13.354;2023-02-13T07:33:30;9.50;96.50
5027;DHT22;2532;52.480;13.354;2023-02-13T07:35:57;9.50;96.50
5027;DHT22;2532;52.480;13.354;2023-02-13T07:38:29;9.50;96.40
5027;DHT22;2532;52.480;13.354;2023-02-13T07:41:03;9.50;96.70
5027;DHT22;2532;52.480;13.354;2023-02-13T07:43:30;9.50;96.40
5027;DHT22;2532;52.480;13.354;2023-02-13T07:46:22;9.50;96.50
5027;DHT22;2532;52.480;13.354;2023-02-13T07:48:59;9.50;96.50
5027;DHT22;2532;52.480;13.354;2023-02-13T07:51:27;9.50;96.40
5027;DHT22;2532;52.480;13.354;2023-02-13T07:53:57;9.60;96.40
5027;DHT22;2532;52.480;13.354;2023-02-13T07:56:26;9.60;96.50
5027;DHT22;2532;52.480;13.354;2023-02-13T07:58:53;9.60;96.40
5027;DHT22;2532;52.480;13.354;2023-02-13T08:01:22;9.60;96.40
5027;DHT22;2532;52.480;13.354;2023-02-13T08:03:56;9.50;96.40
5027;DHT22;2532;52.480;13.354;2023-02-13T08:06:44;9.50;96.40
5027;DHT22;2532;52.480;13.354;2023-02-13T08:09:18;9.50;96.50
5027;DHT22;2532;52.480;13.354;2023-02-13T08:12:07;9.50;96.60
5027;DHT22;2532;52.480;13.354;2023-02-13T08:14:35;9.50;96.60
5027;DHT22;2532;52.480;13.354;2023-02-13T08:17:05;9.50;96.60
5027;DHT22;2532;52.480;13.354;2023-02-13T08:19:36;9.60;96.50
5027;DHT22;2532;52.480;13.354;2023-02-13T08:22:06;9.50;96.50
5027;DHT22;2532;52.480;13.354;2023-02-13T08:24:38;9.50;96.40
5027;DHT22;2532;52.480;13.354;2023-02-13T08:27:11;9.60;96.50
5027;DHT22;2532;52.480;13.354;2023-02-13T08:29:39;9.60;96.50
5027;DHT22;2532;52.480;13.354;2023-02-13T08:32:25;9.50;96.60
5027;DHT22;2532;52.480;13.354;2023-02-13T08:34:58;9.50;96.70
5027;DHT22;2532;52.480;13.354;2023-02-13T08:37:49;9.50;96.60
5027;DHT22;2532;52.480;13.354;2023-02-13T08:43:38;9.60;96.70
5027;DHT22;2532;52.480;13.354;2023-02-13T08:46:14;9.60;96.60
5027;DHT22;2532;52.480;13.354;2023-02-13T08:48:55;9.60;96.50
5027;DHT22;2532;52.480;13.354;2023-02-13T08:51:36;9.60;96.40
5027;DHT22;2532;52.480;13.354;2023-02-13T08:54:06;9.60;96.40
5027;DHT22;2532;52.480;13.354;2023-02-13T08:56:33;9.60;96.50
5027;DHT22;2532;52.480;13.354;2023-02-13T08:59:06;9.60;96.50
5027;DHT22;2532;52.480;13.354;2023-02-13T09:01:35;9.60;96.40
5027;DHT22;2532;52.480;13.354;2023-02-13T09:04:05;9.60;96.40
5027;DHT22;2532;52.480;13.354;2023-02-13T09:06:33;9.70;96.50
5027;DHT22;2532;52.480;13.354;2023-02-13T09:09:01;9.70;96.50
5027;DHT22;2532;52.480;13.354;2023-02-13T09:11:34;9.70;96.50
5027;DHT22;2532;52.480;13.354;2023-02-13T09:14:11;9.80;96.50
5027;DHT22;2532;52.480;13.354;2023-02-13T09:16:51;9.80;96.50
5027;DHT22;2532;52.480;13.354;2023-02-13T09:19:22;9.80;96.60
5027;DHT22;2532;52.480;13.354;2023-02-13T09:22:00;9.80;96.60
5027;DHT22;2532;52.480;13.354;2023-02-13T09:24:35;9.80;96.70
5027;DHT22;2532;52.480;13.354;2023-02-13T09:27:11;9.80;96.70
5027;DHT22;2532;52.480;13.354;2023-02-13T09:29:43;9.80;96.80
5027;DHT22;2532;52.480;13.354;2023-02-13T09:32:11;9.80;96.80
5027;DHT22;2532;52.480;13.354;2023-02-13T09:34:48;9.80;97.00
5027;DHT22;2532;52.480;13.354;2023-02-13T09:37:20;9.80;97.10
5027;DHT22;2532;52.480;13.354;2023-02-13T09:40:03;9.80;97.10
5027;DHT22;2532;52.480;13.354;2023-02-13T09:42:40;9.80;97.10
5027;DHT22;2532;52.480;13.354;2023-02-13T09:45:11;9.80;97.30
5027;DHT22;2532;52.480;13.354;2023-02-13T09:47:53;9.80;97.40
5027;DHT22;2532;52.480;13.354;2023-02-13T09:50:25;9.80;97.60
5027;DHT22;2532;52.480;13.354;2023-02-13T09:53:16;9.80;97.60
5027;DHT22;2532;52.480;13.354;2023-02-13T09:55:51;9.80;97.80
5027;DHT22;2532;52.480;13.354;2023-02-13T09:58:32;9.70;97.80
5027;DHT22;2532;52.480;13.354;2023-02-13T10:04:24;9.70;98.10
5027;DHT22;2532;52.480;13.354;2023-02-13T10:07:11;9.70;98.30
5027;DHT22;2532;52.480;13.354;2023-02-13T10:09:55;9.60;98.40
5027;DHT22;2532;52.480;13.354;2023-02-13T10:12:49;9.60;98.50
5027;DHT22;2532;52.480;13.354;2023-02-13T10:16:01;9.60;98.60
5027;DHT22;2532;52.480;13.354;2023-02-13T10:18:48;9.60;98.60
5027;DHT22;2532;52.480;13.354;2023-02-13T10:21:30;9.60;98.70
5027;DHT22;2532;52.480;13.354;2023-02-13T10:24:03;9.60;98.70
5027;DHT22;2532;52.480;13.354;2023-02-13T10:26:33;9.60;98.70
5027;DHT22;2532;52.480;13.354;2023-02-13T10:29:16;9.60;98.70
5027;DHT22;2532;52.480;13.354;2023-02-13T10:32:14;9.60;98.80
5027;DHT22;2532;52.480;13.354;2023-02-13T10:34:52;9.60;98.80
5027;DHT22;2532;52.480;13.354;2023-02-13T10:37:27;9.70;98.90
5027;DHT22;2532;52.480;13.354;2023-02-13T10:39:56;9.60;98.70
5027;DHT22;2532;52.480;13.354;2023-02-13T10:42:42;9.70;98.80
5027;DHT22;2532;52.480;13.354;2023-02-13T10:45:26;9.70;98.90
5027;DHT22;2532;52.480;13.354;2023-02-13T10:48:09;9.70;98.90
5027;DHT22;2532;52.480;13.354;2023-02-13T10:50:57;9.70;98.90
5027;DHT22;2532;52.480;13.354;2023-02-13T10:53:38;9.70;98.90
5027;DHT22;2532;52.480;13.354;2023-02-13T10:56:26;9.70;98.90
5027;DHT22;2532;52.480;13.354;2023-02-13T10:59:14;9.70;98.80
5027;DHT22;2532;52.480;13.354;2023-02-13T11:01:54;9.70;98.80
5027;DHT22;2532;52.480;13.354;2023-02-13T11:04:22;9.60;98.80
5027;DHT22;2532;52.480;13.354;2023-02-13T11:06:58;9.60;98.70
5027;DHT22;2532;52.480;13.354;2023-02-13T11:09:28;9.60;98.70
5027;DHT22;2532;52.480;13.354;2023-02-13T11:12:25;9.60;98.50
5027;DHT22;2532;52.480;13.354;2023-02-13T11:14:56;9.60;98.30
5027;DHT22;2532;52.480;13.354;2023-02-13T11:17:29;9.70;98.10
5027;DHT22;2532;52.480;13.354;2023-02-13T11:20:06;9.70;98.10
5027;DHT22;2532;52.480;13.354;2023-02-13T11:23:20;9.60;97.90
5027;DHT22;2532;52.480;13.354;2023-02-13T11:25:56;9.60;97.70
5027;DHT22;2532;52.480;13.354;2023-02-13T11:28:30;9.60;97.70
5027;DHT22;2532;52.480;13.354;2023-02-13T11:31:12;9.60;97.70
5027;DHT22;2532;52.480;13.354;2023-02-13T11:33:43;9.60;97.70
5027;DHT22;2532;52.480;13.354;2023-02-13T11:36:28;9.60;97.60
5027;DHT22;2532;52.480;13.354;2023-02-13T11:39:18;9.60;97.50
5027;DHT22;2532;52.480;13.354;2023-02-13T11:41:46;9.70;97.30
5027;DHT22;2532;52.480;13.354;2023-02-13T11:44:23;9.70;97.10
5027;DHT22;2532;52.480;13.354;2023-02-13T11:46:56;9.70;97.00
5027;DHT22;2532;52.480;13.354;2023-02-13T11:49:30;9.70;96.80
5027;DHT22;2532;52.480;13.354;2023-02-13T11:52:00;9.70;96.70
5027;DHT22;2532;52.480;13.354;2023-02-13T11:54:31;9.80;96.70
5027;DHT22;2532;52.480;13.354;2023-02-13T11:57:01;9.70;96.80
5027;DHT22;2532;52.480;13.354;2023-02-13T11:59:32;9.80;96.80
5027;DHT22;2532;52.480;13.354;2023-02-13T12:02:13;9.80;96.70
5027;DHT22;2532;52.480;13.354;2023-02-13T12:04:40;9.80;96.80
5027;DHT22;2532;52.480;13.354;2023-02-13T12:07:14;9.90;97.00
5027;DHT22;2532;52.480;13.354;2023-02-13T12:09:46;10.00;95.90
5027;DHT22;2532;52.480;13.354;2023-02-13T12:12:18;10.00;95.50
5027;DHT22;2532;52.480;13.354;2023-02-13T12:14:48;10.00;95.50
5027;DHT22;2532;52.480;13.354;2023-02-13T12:17:19;10.00;95.40
5027;DHT22;2532;52.480;13.354;2023-02-13T12:19:47;10.00;95.30
5027;DHT22;2532;52.480;13.354;2023-02-13T12:22:29;10.00;95.10
5027;DHT22;2532;52.480;13.354;2023-02-13T12:25:30;10.00;95.30
5027;DHT22;2532;52.480;13.354;2023-02-13T12:28:08;10.00;95.30
5027;DHT22;2532;52.480;13.354;2023-02-13T12:30:58;10.10;95.10
5027;DHT22;2532;52.480;13.354;2023-02-13T12:36:30;10.30;95.40
5027;DHT22;2532;52.480;13.354;2023-02-13T12:39:14;10.30;95.30
5027;DHT22;2532;52.480;13.354;2023-02-13T12:41:51;10.30;95.10
5027;DHT22;2532;52.480;13.354;2023-02-13T12:44:41;10.40;95.00
5027;DHT22;2532;52.480;13.354;2023-02-13T12:47:15;10.50;95.00
5027;DHT22;2532;52.480;13.354;2023-02-13T12:55:56;10.50;94.30
5027;DHT22;2532;52.480;13.354;2023-02-13T12:58:44;10.40;94.30
5027;DHT22;2532;52.480;13.354;2023-02-13T13:01:22;10.40;94.30
5027;DHT22;2532;52.480;13.354;2023-02-13T13:03:57;10.40;94.40
5027;DHT22;2532;52.480;13.354;2023-02-13T13:06:41;10.40;94.40
5027;DHT22;2532;52.480;13.354;2023-02-13T13:09:36;10.40;94.50
5027;DHT22;2532;52.480;13.354;2023-02-13T13:12:33;10.40;94.10
5027;DHT22;2532;52.480;13.354;2023-02-13T13:15:14;10.20;94.20
5027;DHT22;2532;52.480;13.354;2023-02-13T13:17:54;10.10;94.10
5027;DHT22;2532;52.480;13.354;2023-02-13T13:20:47;9.90;94.50
5027;DHT22;2532;52.480;13.354;2023-02-13T13:23:20;10.00;94.20
5027;DHT22;2532;52.480;13.354;2023-02-13T13:25:57;9.90;94.70
5027;DHT22;2532;52.480;13.354;2023-02-13T13:28:27;10.00;94.50
5027;DHT22;2532;52.480;13.354;2023-02-13T13:30:57;9.90;94.90
5027;DHT22;2532;52.480;13.354;2023-02-13T13:33:26;10.00;94.50
5027;DHT22;2532;52.480;13.354;2023-02-13T13:36:00;10.00;94.50
5027;DHT22;2532;52.480;13.354;2023-02-13T13:38:39;10.00;94.60
5027;DHT22;2532;52.480;13.354;2023-02-13T13:41:13;10.00;94.30
5027;DHT22;2532;52.480;13.354;2023-02-13T13:44:04;10.00;94.30
5027;DHT22;2532;52.480;13.354;2023-02-13T13:46:43;10.00;94.30
5027;DHT22;2532;52.480;13.354;2023-02-13T13:49:23;10.00;94.10
5027;DHT22;2532;52.480;13.354;2023-02-13T13:51:50;9.90;94.60
5027;DHT22;2532;52.480;13.354;2023-02-13T13:54:31;10.00;94.10
5027;DHT22;2532;52.480;13.354;2023-02-13T13:57:10;9.80;94.40
5027;DHT22;2532;52.480;13.354;2023-02-13T14:02:45;9.70;94.60
5027;DHT22;2532;52.480;13.354;2023-02-13T14:05:23;9.70;94.80
5027;DHT22;2532;52.480;13.354;2023-02-13T14:07:56;9.60;95.00
5027;DHT22;2532;52.480;13.354;2023-02-13T14:13:34;9.50;94.80
5027;DHT22;2532;52.480;13.354;2023-02-13T14:16:02;9.50;95.00
5027;DHT22;2532;52.480;13.354;2023-02-13T14:18:31;9.40;94.90
5027;DHT22;2532;52.480;13.354;2023-02-13T14:21:00;9.40;95.10
5027;DHT22;2532;52.480;13.354;2023-02-13T14:23:46;9.40;95.10
5027;DHT22;2532;52.480;13.354;2023-02-13T14:26:35;9.40;95.00
5027;DHT22;2532;52.480;13.354;2023-02-13T14:29:27;9.40;95.10
5027;DHT22;2532;52.480;13.354;2023-02-13T14:32:25;9.40;95.20
5027;DHT22;2532;52.480;13.354;2023-02-13T14:34:59;9.40;95.20
5027;DHT22;2532;52.480;13.354;2023-02-13T14:37:31;9.40;95.20
5027;DHT22;2532;52.480;13.354;2023-02-13T14:43:34;9.50;95.30
5027;DHT22;2532;52.480;13.354;2023-02-13T14:46:07;9.60;95.20
5027;DHT22;2532;52.480;13.354;2023-02-13T14:48:39;9.60;95.20
5027;DHT22;2532;52.480;13.354;2023-02-13T14:51:16;9.60;95.20
5027;DHT22;2532;52.480;13.354;2023-02-13T14:53:49;9.60;95.20
5027;DHT22;2532;52.480;13.354;2023-02-13T14:56:20;9.60;95.20
5027;DHT22;2532;52.480;13.354;2023-02-13T14:58:51;9.70;95.00
5027;DHT22;2532;52.480;13.354;2023-02-13T15:01:29;9.70;95.00
5027;DHT22;2532;52.480;13.354;2023-02-13T15:04:01;9.70;94.70
5027;DHT22;2532;52.480;13.354;2023-02-13T15:06:33;9.70;94.60
5027;DHT22;2532;52.480;13.354;2023-02-13T15:09:05;9.70;94.70
5027;DHT22;2532;52.480;13.354;2023-02-13T15:11:40;9.80;94.60
5027;DHT22;2532;52.480;13.354;2023-02-13T15:14:19;9.80;94.60
5027;DHT22;2532;52.480;13.354;2023-02-13T15:16:52;9.80;94.80
5027;DHT22;2532;52.480;13.354;2023-02-13T15:19:21;9.90;94.50
5027;DHT22;2532;52.480;13.354;2023-02-13T15:21:53;9.90;94.40
5027;DHT22;2532;52.480;13.354;2023-02-13T15:24:21;9.90;94.40
5027;DHT22;2532;52.480;13.354;2023-02-13T15:26:52;9.90;94.70
5027;DHT22;2532;52.480;13.354;2023-02-13T15:29:20;9.90;94.40
5027;DHT22;2532;52.480;13.354;2023-02-13T15:31:47;9.90;94.40
5027;DHT22;2532;52.480;13.354;2023-02-13T15:34:23;9.80;94.40
5027;DHT22;2532;52.480;13.354;2023-02-13T15:36:54;9.80;94.50
5027;DHT22;2532;52.480;13.354;2023-02-13T15:39:24;9.80;94.60
5027;DHT22;2532;52.480;13.354;2023-02-13T15:41:53;9.80;94.70
5027;DHT22;2532;52.480;13.354;2023-02-13T15:44:24;9.80;94.90
5027;DHT22;2532;52.480;13.354;2023-02-13T15:46:53;9.80;95.00
5027;DHT22;2532;52.480;13.354;2023-02-13T15:49:23;9.90;95.10
5027;DHT22;2532;52.480;13.354;2023-02-13T15:52:02;9.80;95.00
5027;DHT22;2532;52.480;13.354;2023-02-13T15:54:32;9.90;95.10
5027;DHT22;2532;52.480;13.354;2023-02-13T15:57:02;9.90;95.10
5027;DHT22;2532;52.480;13.354;2023-02-13T15:59:33;9.90;95.00
5027;DHT22;2532;52.480;13.354;2023-02-13T16:02:03;9.80;95.10
5027;DHT22;2532;52.480;13.354;2023-02-13T16:04:31;9.80;95.20
5027;DHT22;2532;52.480;13.354;2023-02-13T16:06:58;9.80;95.20
5027;DHT22;2532;52.480;13.354;2023-02-13T16:09:30;9.80;95.60
5027;DHT22;2532;52.480;13.354;2023-02-13T16:12:03;9.80;95.20
5027;DHT22;2532;52.480;13.354;2023-02-13T16:14:33;9.80;95.30
5027;DHT22;2532;52.480;13.354;2023-02-13T16:17:02;9.80;95.40
5027;DHT22;2532;52.480;13.354;2023-02-13T16:19:44;9.90;95.40
5027;DHT22;2532;52.480;13.354;2023-02-13T16:22:26;9.80;95.40
5027;DHT22;2532;52.480;13.354;2023-02-13T16:27:42;9.90;95.30
5027;DHT22;2532;52.480;13.354;2023-02-13T16:30:30;9.80;95.20
5027;DHT22;2532;52.480;13.354;2023-02-13T16:35:54;9.80;95.20
5027;DHT22;2532;52.480;13.354;2023-02-13T16:38:34;9.80;95.20
5027;DHT22;2532;52.480;13.354;2023-02-13T16:41:04;9.80;95.30
5027;DHT22;2532;52.480;13.354;2023-02-13T16:43:39;9.80;95.40
5027;DHT22;2532;52.480;13.354;2023-02-13T16:51:59;9.80;95.20
5027;DHT22;2532;52.480;13.354;2023-02-13T16:54:45;9.80;95.30
5027;DHT22;2532;52.480;13.354;2023-02-13T16:57:22;9.80;95.30
5027;DHT22;2532;52.480;13.354;2023-02-13T16:59:54;9.80;95.30
5027;DHT22;2532;52.480;13.354;2023-02-13T17:02:24;9.80;95.20
5027;DHT22;2532;52.480;13.354;2023-02-13T17:07:40;9.80;95.20
5027;DHT22;2532;52.480;13.354;2023-02-13T17:10:17;9.70;95.20
5027;DHT22;2532;52.480;13.354;2023-02-13T17:12:47;9.70;95.20
5027;DHT22;2532;52.480;13.354;2023-02-13T17:15:15;9.70;95.20
5027;DHT22;2532;52.480;13.354;2023-02-13T17:17:43;9.60;95.20
5027;DHT22;2532;52.480;13.354;2023-02-13T17:20:15;9.70;95.20
5027;DHT22;2532;52.480;13.354;2023-02-13T17:22:43;9.50;95.10
5027;DHT22;2532;52.480;13.354;2023-02-13T17:25:17;9.50;95.20
5027;DHT22;2532;52.480;13.354;2023-02-13T17:27:51;9.50;95.20
5027;DHT22;2532;52.480;13.354;2023-02-13T17:30:21;9.50;95.30
5027;DHT22;2532;52.480;13.354;2023-02-13T17:32:49;9.50;95.30
5027;DHT22;2532;52.480;13.354;2023-02-13T17:35:19;9.50;95.40